Ralph Wenz Field
KPNA : now visible

Airfield :











YOU CAN JOIN US ON...

 
LOGIN :

Register | Disclaimer

   EN    FR    IT 

 









Legend :    VFR   Marginal VFR   IFR   Intensive IFR   Very Intensive IFR
Visi :
Ceiling :
>= 8 km
>= 3000ft
5 to 8 km
1000 to 3000 ft
1500m to 5 km
500 to 1000 ft
800 to 1500m
200 to 500 ft
< 800m
< 200 ft
Symbols :   Thunderstorms  Fog  Heavy snow  Heavy precipitations  Wind > 20 kt






- Airport Elevation : 7102 ft


KPNA - Ralph Wenz Field

CURRENT METAR :
  • 282355Z AUTO 20010KT 10SM CLR 22/M07 A3017 RMK AO2

EXPIRED METARs :
  • 282335Z AUTO 24006KT 10SM CLR 22/M07 A3018 RMK AO2
  • 282255Z AUTO 20009G16KT 10SM BKN120 23/M07 A3019 RMK AO2
  • 282235Z AUTO 20005KT 10SM BKN120 22/M07 A3019 RMK AO2
  • 282215Z AUTO 05006KT 10SM SCT120 21/M07 A3020 RMK AO2
  • 282155Z AUTO 19007KT 10SM SCT120 22/M07 A3021 RMK AO2
  • 282135Z AUTO 25003KT 10SM CLR 22/M07 A3022 RMK AO2
  • 282115Z AUTO 00000KT 10SM CLR 21/M08 A3023 RMK AO2
  • 282055Z AUTO 21010KT 10SM CLR 22/M08 A3024 RMK AO2
  • 282015Z AUTO 14008KT 100V160 10SM CLR 21/M05 A3025 RMK AO2
  • 281955Z AUTO 08005KT 10SM CLR 21/M06 A3026 RMK AO2
  • 281935Z AUTO 16006KT 10SM CLR 20/M06 A3027 RMK AO2
  • 281915Z AUTO 13005KT 10SM CLR 20/M06 A3027 RMK AO2
  • 281855Z AUTO 19004KT 10SM CLR 20/M06 A3028 RMK AO2

TAF KPNA
Valid from the 29 at 00:00 until the 30 at 00:00 UTC


282328Z 2900/2924 VRB06KT P6SM BKN120
FM290200 23008KT P6SM SCT250
FM291900 29016G27KT P6SM SCT100
PROB30 2919/2923 TS BKN060CB
KZLC FIR / North America



MET'MAP, your aeronautical weather chart ! - Copyright ORBIFLY December 2007 - Disclaimer

ORBIFLY MET'MAP TEAM :

Programming & Development : Alexandra Zaïnal
Original concept : Baudouin d'Aumeries
Technical & hardware support : Manuel Goepfert
Assistance : Marc-Olivier Méhu




SOURCES & CREDITS :

   NOAA       Earth
Advisory